N.dadayli — TCCW7 — position and weather

sailwx.info

Track history (hours):
 
Tides and Currents Weather Stations Pressure Air Temp Water Temp Dewpoint Dewpoint Depression Visibility Wind Speed Wind Dir Waves Ship Positions

N.dadayli

Last reported at 2015-Feb-27 17:15 UTC. Time now 2015-Mar-01 19:18 UTC.
Position N 42°06' E 019°03'.

Length 101 m; draft 4.8 m.

Type: Ship. MMSI: 271000768.

Date/timePositionNaut miles runAvg speedWind from/ knotsBaromVisibWave heightAir tempDewpointWater temp
2015-Feb-27 17:15N 42°06' E 019°03'0 0.1
2015-Feb-27 13:06N 42°06' E 019°03'0 0.1
2015-Feb-27 12:27N 42°06' E 019°03'0 0.0
2015-Feb-27 11:30N 42°06' E 019°03'0 0.0
2015-Feb-27 10:30N 42°06' E 019°03'0 0.0
2015-Feb-27 09:33N 42°06' E 019°03'0 0.0
2015-Feb-27 08:27N 42°06' E 019°03'0 0.0
2015-Feb-27 07:33N 42°06' E 019°03'0 0.0
2015-Feb-27 06:33N 42°06' E 019°03'0 0.0
2015-Feb-27 05:33N 42°06' E 019°03'0 0.0
2015-Feb-27 04:30N 42°06' E 019°03'0 0.0
2015-Feb-27 03:24N 42°06' E 019°03'0 0.0
2015-Feb-27 02:18N 42°06' E 019°03'0 0.0
2015-Feb-27 01:30N 42°06' E 019°03'0 0.1
2015-Feb-27 00:09N 42°06' E 019°03'0 0.0
2015-Feb-26 23:33N 42°06' E 019°03'0 0.0
2015-Feb-26 22:30N 42°06' E 019°03'0 0.0
2015-Feb-26 21:30N 42°06' E 019°03'0 0.0
2015-Feb-26 20:33N 42°06' E 019°03'0 0.0
2015-Feb-26 19:30N 42°06' E 019°03'0 0.0
2015-Feb-26 18:33N 42°06' E 019°03'2 1.5
2015-Feb-26 17:29N 42°05' E 019°03'295 6.6
2015-Feb-24 20:31N 38°11' E 022°58'  
2015-Feb-20 23:09N 43°08' E 005°08'6 9.9
2015-Feb-20 22:33N 43°11' E 005°02'1010.0
2015-Feb-20 21:33N 43°21' E 004°58'6 5.8
2015-Feb-20 20:33N 43°26' E 004°54'0 0.1
2015-Feb-20 19:31N 43°26' E 004°53'0 0.0
2015-Feb-20 18:28N 43°26' E 004°53'0 0.0
2015-Feb-20 17:31N 43°26' E 004°53'0 0.0
2015-Feb-20 16:28N 43°26' E 004°53'0 0.0
2015-Feb-20 15:31N 43°26' E 004°53'0 0.0
2015-Feb-20 14:31N 43°26' E 004°53'0 0.0
2015-Feb-20 13:31N 43°26' E 004°53'0 0.0
2015-Feb-20 12:31N 43°26' E 004°53'0 0.0
2015-Feb-20 11:31N 43°26' E 004°53'0 0.0
2015-Feb-20 10:31N 43°26' E 004°53'0 0.0
2015-Feb-20 09:31N 43°26' E 004°53'0 0.0
2015-Feb-20 08:31N 43°26' E 004°53'0 0.0
2015-Feb-20 07:31N 43°26' E 004°53'0 0.0
2015-Feb-20 06:31N 43°26' E 004°53'0 0.0
2015-Feb-20 05:31N 43°26' E 004°53'0 0.0
2015-Feb-20 04:31N 43°26' E 004°53'0 0.0
2015-Feb-20 03:31N 43°26' E 004°53'0 0.0
2015-Feb-20 02:28N 43°26' E 004°53'0 0.0
2015-Feb-20 01:31N 43°26' E 004°53'0 0.0
2015-Feb-20 00:31N 43°26' E 004°53'0 0.0
2015-Feb-19 23:31N 43°26' E 004°53'0 0.0
2015-Feb-19 22:28N 43°26' E 004°53'0 0.0
2015-Feb-19 21:31N 43°26' E 004°53'0 0.0
2015-Feb-19 20:31N 43°26' E 004°53'0 0.0
2015-Feb-19 19:31N 43°26' E 004°53'0 0.0
2015-Feb-19 18:25N 43°26' E 004°53'0 0.0
2015-Feb-19 17:31N 43°26' E 004°53'0 0.0
2015-Feb-19 16:28N 43°26' E 004°53'0 0.0
2015-Feb-19 15:31N 43°26' E 004°53'0 0.0
2015-Feb-19 14:31N 43°26' E 004°53'0 0.0
2015-Feb-19 13:32N 43°26' E 004°53'2 2.2
2015-Feb-19 12:32N 43°24' E 004°56'0 0.0
2015-Feb-19 11:32N 43°24' E 004°56'0 0.0
2015-Feb-19 10:32N 43°24' E 004°56'0 0.0
2015-Feb-19 09:32N 43°24' E 004°56'0 0.0
2015-Feb-19 08:32N 43°24' E 004°56'0 0.0
2015-Feb-19 07:32N 43°24' E 004°56'0 0.1
2015-Feb-19 06:32N 43°24' E 004°56'0 0.0
2015-Feb-19 05:32N 43°24' E 004°56'0 0.0
2015-Feb-19 04:32N 43°24' E 004°56'0 0.0
2015-Feb-19 03:32N 43°24' E 004°56'6 6.5
2015-Feb-19 02:34N 43°18' E 004°59'1212.5
2015-Feb-19 01:33N 43°07' E 005°05'23011.5
2015-Feb-18 05:33N 39°58' E 008°01'1510.8
2015-Feb-18 04:10N 39°43' E 008°02'1710.8
2015-Feb-18 02:33N 39°26' E 008°05'2510.8
2015-Feb-18 00:13N 39°01' E 008°11'2011.7
2015-Feb-17 22:33N 38°46' E 008°27'1212.5
2015-Feb-17 21:33N 38°41' E 008°41'  
Track history (hours):
 
Tides and Currents Weather Stations Pressure Air Temp Water Temp Dewpoint Dewpoint Depression Visibility Wind Speed Wind Dir Waves Ship Positions

N.dadayli

Last reported at 2015-Feb-27 17:15 UTC. Time now 2015-Mar-01 19:18 UTC.
Position N 42°06' E 019°03'.

Length 101 m; draft 4.8 m.

Type: Ship. MMSI: 271000768.

Date/timePositionNaut miles runAvg speedWind from/ knotsBaromVisibWave heightAir tempDewpointWater temp
2015-Feb-27 17:15N 42°06' E 019°03'0 0.1
2015-Feb-27 13:06N 42°06' E 019°03'0 0.1
2015-Feb-27 12:27N 42°06' E 019°03'0 0.0
2015-Feb-27 11:30N 42°06' E 019°03'0 0.0
2015-Feb-27 10:30N 42°06' E 019°03'0 0.0
2015-Feb-27 09:33N 42°06' E 019°03'0 0.0
2015-Feb-27 08:27N 42°06' E 019°03'0 0.0
2015-Feb-27 07:33N 42°06' E 019°03'0 0.0
2015-Feb-27 06:33N 42°06' E 019°03'0 0.0
2015-Feb-27 05:33N 42°06' E 019°03'0 0.0
2015-Feb-27 04:30N 42°06' E 019°03'0 0.0
2015-Feb-27 03:24N 42°06' E 019°03'0 0.0
2015-Feb-27 02:18N 42°06' E 019°03'0 0.0
2015-Feb-27 01:30N 42°06' E 019°03'0 0.1
2015-Feb-27 00:09N 42°06' E 019°03'0 0.0
2015-Feb-26 23:33N 42°06' E 019°03'0 0.0
2015-Feb-26 22:30N 42°06' E 019°03'0 0.0
2015-Feb-26 21:30N 42°06' E 019°03'0 0.0
2015-Feb-26 20:33N 42°06' E 019°03'0 0.0
2015-Feb-26 19:30N 42°06' E 019°03'0 0.0
2015-Feb-26 18:33N 42°06' E 019°03'2 1.5
2015-Feb-26 17:29N 42°05' E 019°03'295 6.6
2015-Feb-24 20:31N 38°11' E 022°58'  
2015-Feb-20 23:09N 43°08' E 005°08'6 9.9
2015-Feb-20 22:33N 43°11' E 005°02'1010.0
2015-Feb-20 21:33N 43°21' E 004°58'6 5.8
2015-Feb-20 20:33N 43°26' E 004°54'0 0.1
2015-Feb-20 19:31N 43°26' E 004°53'0 0.0
2015-Feb-20 18:28N 43°26' E 004°53'0 0.0
2015-Feb-20 17:31N 43°26' E 004°53'0 0.0
2015-Feb-20 16:28N 43°26' E 004°53'0 0.0
2015-Feb-20 15:31N 43°26' E 004°53'0 0.0
2015-Feb-20 14:31N 43°26' E 004°53'0 0.0
2015-Feb-20 13:31N 43°26' E 004°53'0 0.0
2015-Feb-20 12:31N 43°26' E 004°53'0 0.0
2015-Feb-20 11:31N 43°26' E 004°53'0 0.0
2015-Feb-20 10:31N 43°26' E 004°53'0 0.0
2015-Feb-20 09:31N 43°26' E 004°53'0 0.0
2015-Feb-20 08:31N 43°26' E 004°53'0 0.0
2015-Feb-20 07:31N 43°26' E 004°53'0 0.0
2015-Feb-20 06:31N 43°26' E 004°53'0 0.0
2015-Feb-20 05:31N 43°26' E 004°53'0 0.0
2015-Feb-20 04:31N 43°26' E 004°53'0 0.0
2015-Feb-20 03:31N 43°26' E 004°53'0 0.0
2015-Feb-20 02:28N 43°26' E 004°53'0 0.0
2015-Feb-20 01:31N 43°26' E 004°53'0 0.0
2015-Feb-20 00:31N 43°26' E 004°53'0 0.0
2015-Feb-19 23:31N 43°26' E 004°53'0 0.0
2015-Feb-19 22:28N 43°26' E 004°53'0 0.0
2015-Feb-19 21:31N 43°26' E 004°53'0 0.0
2015-Feb-19 20:31N 43°26' E 004°53'0 0.0
2015-Feb-19 19:31N 43°26' E 004°53'0 0.0
2015-Feb-19 18:25N 43°26' E 004°53'0 0.0
2015-Feb-19 17:31N 43°26' E 004°53'0 0.0
2015-Feb-19 16:28N 43°26' E 004°53'0 0.0
2015-Feb-19 15:31N 43°26' E 004°53'0 0.0
2015-Feb-19 14:31N 43°26' E 004°53'0 0.0
2015-Feb-19 13:32N 43°26' E 004°53'2 2.2
2015-Feb-19 12:32N 43°24' E 004°56'0 0.0
2015-Feb-19 11:32N 43°24' E 004°56'0 0.0
2015-Feb-19 10:32N 43°24' E 004°56'0 0.0
2015-Feb-19 09:32N 43°24' E 004°56'0 0.0
2015-Feb-19 08:32N 43°24' E 004°56'0 0.0
2015-Feb-19 07:32N 43°24' E 004°56'0 0.1
2015-Feb-19 06:32N 43°24' E 004°56'0 0.0
2015-Feb-19 05:32N 43°24' E 004°56'0 0.0
2015-Feb-19 04:32N 43°24' E 004°56'0 0.0
2015-Feb-19 03:32N 43°24' E 004°56'6 6.5
2015-Feb-19 02:34N 43°18' E 004°59'1212.5
2015-Feb-19 01:33N 43°07' E 005°05'23011.5
2015-Feb-18 05:33N 39°58' E 008°01'1510.8
2015-Feb-18 04:10N 39°43' E 008°02'1710.8
2015-Feb-18 02:33N 39°26' E 008°05'2510.8
2015-Feb-18 00:13N 39°01' E 008°11'2011.7
2015-Feb-17 22:33N 38°46' E 008°27'1212.5
2015-Feb-17 21:33N 38°41' E 008°41'  

Dump ship's entire track history